sensor_id;sensor_type;location;lat;lon;timestamp;P1;P2;P0
76238;PMS7003;65043;48.392;-4.472;2023-07-20T00:01:51;2.50;2.50;2.00
76238;PMS7003;65043;48.392;-4.472;2023-07-20T00:07:50;5.00;3.50;3.00
76238;PMS7003;65043;48.392;-4.472;2023-07-20T00:10:49;4.50;3.75;3.00
76238;PMS7003;65043;48.392;-4.472;2023-07-20T00:13:23;6.75;4.25;2.25
76238;PMS7003;65043;48.392;-4.472;2023-07-20T00:16:04;4.50;4.25;2.75
76238;PMS7003;65043;48.392;-4.472;2023-07-20T00:18:49;4.25;4.00;2.00
76238;PMS7003;65043;48.392;-4.472;2023-07-20T00:21:23;3.75;3.75;2.75
76238;PMS7003;65043;48.392;-4.472;2023-07-20T00:23:53;3.75;3.75;2.50
76238;PMS7003;65043;48.392;-4.472;2023-07-20T00:26:22;4.25;4.25;2.00
76238;PMS7003;65043;48.392;-4.472;2023-07-20T00:29:17;4.25;4.00;2.75
76238;PMS7003;65043;48.392;-4.472;2023-07-20T00:31:58;6.00;3.50;2.00
76238;PMS7003;65043;48.392;-4.472;2023-07-20T00:34:28;7.50;3.00;2.75
76238;PMS7003;65043;48.392;-4.472;2023-07-20T00:37:00;3.00;3.00;2.00
76238;PMS7003;65043;48.392;-4.472;2023-07-20T00:42:24;4.25;4.25;3.00
76238;PMS7003;65043;48.392;-4.472;2023-07-20T00:51:32;6.75;6.50;5.00
76238;PMS7003;65043;48.392;-4.472;2023-07-20T00:54:44;6.00;6.00;4.25
76238;PMS7003;65043;48.392;-4.472;2023-07-20T00:57:52;4.75;4.75;2.50
76238;PMS7003;65043;48.392;-4.472;2023-07-20T01:09:28;6.00;4.25;3.00
76238;PMS7003;65043;48.392;-4.472;2023-07-20T01:15:28;5.75;5.75;3.50
76238;PMS7003;65043;48.392;-4.472;2023-07-20T01:18:20;5.50;5.50;3.00
76238;PMS7003;65043;48.392;-4.472;2023-07-20T01:37:03;8.00;7.75;5.50
76238;PMS7003;65043;48.392;-4.472;2023-07-20T01:39:38;7.00;7.00;4.25
76238;PMS7003;65043;48.392;-4.472;2023-07-20T01:51:49;9.50;7.50;5.50
76238;PMS7003;65043;48.392;-4.472;2023-07-20T01:57:47;9.00;6.75;5.75
76238;PMS7003;65043;48.392;-4.472;2023-07-20T02:00:17;12.25;6.75;4.00
76238;PMS7003;65043;48.392;-4.472;2023-07-20T02:03:12;7.50;7.50;4.50
76238;PMS7003;65043;48.392;-4.472;2023-07-20T02:06:00;10.00;7.75;5.75
76238;PMS7003;65043;48.392;-4.472;2023-07-20T02:08:53;6.00;4.75;3.00
76238;PMS7003;65043;48.392;-4.472;2023-07-20T02:14:16;5.50;5.50;3.25
76238;PMS7003;65043;48.392;-4.472;2023-07-20T02:17:11;11.75;8.00;4.50
76238;PMS7003;65043;48.392;-4.472;2023-07-20T02:19:40;11.50;9.50;4.75
76238;PMS7003;65043;48.392;-4.472;2023-07-20T02:22:19;11.50;10.25;6.50
76238;PMS7003;65043;48.392;-4.472;2023-07-20T02:24:57;6.25;6.25;4.50
76238;PMS7003;65043;48.392;-4.472;2023-07-20T02:28:04;7.75;7.25;5.75
76238;PMS7003;65043;48.392;-4.472;2023-07-20T02:34:12;5.75;5.75;4.00
76238;PMS7003;65043;48.392;-4.472;2023-07-20T02:37:13;10.50;7.50;4.25
76238;PMS7003;65043;48.392;-4.472;2023-07-20T02:45:35;8.50;8.50;5.75
76238;PMS7003;65043;48.392;-4.472;2023-07-20T02:48:39;11.25;9.50;6.00
76238;PMS7003;65043;48.392;-4.472;2023-07-20T02:51:35;6.75;6.75;4.75
76238;PMS7003;65043;48.392;-4.472;2023-07-20T02:54:07;9.00;9.00;6.00
76238;PMS7003;65043;48.392;-4.472;2023-07-20T02:59:46;11.25;8.00;6.25
76238;PMS7003;65043;48.392;-4.472;2023-07-20T03:02:31;9.75;7.75;5.75
76238;PMS7003;65043;48.392;-4.472;2023-07-20T03:04:59;11.50;10.25;6.75
76238;PMS7003;65043;48.392;-4.472;2023-07-20T03:07:46;10.00;9.25;6.00
76238;PMS7003;65043;48.392;-4.472;2023-07-20T03:13:29;13.50;9.75;6.50
76238;PMS7003;65043;48.392;-4.472;2023-07-20T03:16:26;10.75;8.75;5.50
76238;PMS7003;65043;48.392;-4.472;2023-07-20T03:19:03;5.75;5.75;4.50
76238;PMS7003;65043;48.392;-4.472;2023-07-20T03:21:57;9.25;9.25;6.75
76238;PMS7003;65043;48.392;-4.472;2023-07-20T03:34:59;12.00;9.00;5.25
76238;PMS7003;65043;48.392;-4.472;2023-07-20T03:47:28;11.75;9.25;7.00
76238;PMS7003;65043;48.392;-4.472;2023-07-20T04:00:04;8.25;7.75;6.25
76238;PMS7003;65043;48.392;-4.472;2023-07-20T04:06:23;9.75;9.50;7.50
76238;PMS7003;65043;48.392;-4.472;2023-07-20T04:12:44;14.75;12.75;7.75
76238;PMS7003;65043;48.392;-4.472;2023-07-20T04:22:03;12.75;12.00;7.75
76238;PMS7003;65043;48.392;-4.472;2023-07-20T04:24:32;10.25;9.50;6.50
76238;PMS7003;65043;48.392;-4.472;2023-07-20T04:27:23;10.75;10.50;7.00
76238;PMS7003;65043;48.392;-4.472;2023-07-20T04:36:13;12.00;10.25;8.25
76238;PMS7003;65043;48.392;-4.472;2023-07-20T04:39:27;19.25;14.75;9.00
76238;PMS7003;65043;48.392;-4.472;2023-07-20T04:45:25;12.00;10.50;7.50
76238;PMS7003;65043;48.392;-4.472;2023-07-20T04:48:40;15.75;10.75;7.00
76238;PMS7003;65043;48.392;-4.472;2023-07-20T04:51:29;12.25;11.50;8.50
76238;PMS7003;65043;48.392;-4.472;2023-07-20T04:54:06;11.50;11.25;8.00
76238;PMS7003;65043;48.392;-4.472;2023-07-20T04:56:54;14.00;11.50;6.75
76238;PMS7003;65043;48.392;-4.472;2023-07-20T04:59:24;12.75;10.25;7.50
76238;PMS7003;65043;48.392;-4.472;2023-07-20T05:01:50;16.00;14.50;9.25
76238;PMS7003;65043;48.392;-4.472;2023-07-20T05:04:18;13.25;12.25;7.75
76238;PMS7003;65043;48.392;-4.472;2023-07-20T05:06:52;14.75;14.75;9.25
76238;PMS7003;65043;48.392;-4.472;2023-07-20T05:12:16;15.00;14.75;9.00
76238;PMS7003;65043;48.392;-4.472;2023-07-20T05:15:14;15.25;12.50;8.00
76238;PMS7003;65043;48.392;-4.472;2023-07-20T05:31:02;16.00;13.00;9.00
76238;PMS7003;65043;48.392;-4.472;2023-07-20T05:34:17;15.25;12.50;9.00
76238;PMS7003;65043;48.392;-4.472;2023-07-20T05:36:48;14.50;13.75;8.75
76238;PMS7003;65043;48.392;-4.472;2023-07-20T05:39:35;12.75;12.75;10.00
76238;PMS7003;65043;48.392;-4.472;2023-07-20T05:42:20;12.50;12.50;10.25
76238;PMS7003;65043;48.392;-4.472;2023-07-20T05:44:54;13.75;13.75;9.75
76238;PMS7003;65043;48.392;-4.472;2023-07-20T05:47:42;16.50;13.00;9.50
76238;PMS7003;65043;48.392;-4.472;2023-07-20T05:53:20;14.25;13.00;9.25
76238;PMS7003;65043;48.392;-4.472;2023-07-20T05:59:28;12.25;11.75;8.25
76238;PMS7003;65043;48.392;-4.472;2023-07-20T06:15:45;11.00;8.00;5.75
76238;PMS7003;65043;48.392;-4.472;2023-07-20T06:19:12;9.50;7.25;4.75
76238;PMS7003;65043;48.392;-4.472;2023-07-20T06:26:03;10.50;8.00;6.00
76238;PMS7003;65043;48.392;-4.472;2023-07-20T06:29:02;11.50;7.75;6.00
76238;PMS7003;65043;48.392;-4.472;2023-07-20T06:34:40;11.00;10.75;6.75
76238;PMS7003;65043;48.392;-4.472;2023-07-20T06:40:10;9.25;8.50;5.50
76238;PMS7003;65043;48.392;-4.472;2023-07-20T06:49:24;27.75;14.50;10.00
76238;PMS7003;65043;48.392;-4.472;2023-07-20T07:20:49;5.25;5.25;4.25
76238;PMS7003;65043;48.392;-4.472;2023-07-20T07:31:08;5.50;5.50;4.25
76238;PMS7003;65043;48.392;-4.472;2023-07-20T07:34:28;5.75;5.75;4.50
76238;PMS7003;65043;48.392;-4.472;2023-07-20T07:40:59;6.75;3.75;3.00
76238;PMS7003;65043;48.392;-4.472;2023-07-20T07:44:32;5.75;5.75;3.00
76238;PMS7003;65043;48.392;-4.472;2023-07-20T07:47:38;3.50;3.50;3.50
76238;PMS7003;65043;48.392;-4.472;2023-07-20T08:05:31;3.00;3.00;2.00
76238;PMS7003;65043;48.392;-4.472;2023-07-20T08:08:35;7.00;4.50;3.00
76238;PMS7003;65043;48.392;-4.472;2023-07-20T08:18:44;3.00;2.75;2.00
76238;PMS7003;65043;48.392;-4.472;2023-07-20T08:21:29;2.75;2.75;1.75
76238;PMS7003;65043;48.392;-4.472;2023-07-20T08:25:01;3.00;3.00;2.00
76238;PMS7003;65043;48.392;-4.472;2023-07-20T08:28:22;3.50;2.75;2.25
76238;PMS7003;65043;48.392;-4.472;2023-07-20T08:42:33;7.00;1.50;1.00
76238;PMS7003;65043;48.392;-4.472;2023-07-20T08:45:14;5.25;3.00;2.00
76238;PMS7003;65043;48.392;-4.472;2023-07-20T09:01:46;3.00;2.25;2.00
76238;PMS7003;65043;48.392;-4.472;2023-07-20T09:04:52;2.00;2.00;2.00
76238;PMS7003;65043;48.392;-4.472;2023-07-20T09:08:10;4.00;4.00;3.00
76238;PMS7003;65043;48.392;-4.472;2023-07-20T09:18:00;3.00;3.00;2.00
76238;PMS7003;65043;48.392;-4.472;2023-07-20T09:31:58;2.25;2.25;2.00
76238;PMS7003;65043;48.392;-4.472;2023-07-20T09:35:31;4.00;3.00;2.50
76238;PMS7003;65043;48.392;-4.472;2023-07-20T09:42:21;3.25;3.25;2.25
76238;PMS7003;65043;48.392;-4.472;2023-07-20T09:45:23;3.00;1.25;1.00
76238;PMS7003;65043;48.392;-4.472;2023-07-20T09:51:58;3.25;3.00;2.00
76238;PMS7003;65043;48.392;-4.472;2023-07-20T10:05:39;3.25;2.50;2.00
76238;PMS7003;65043;48.392;-4.472;2023-07-20T10:32:38;2.50;2.50;2.00
76238;PMS7003;65043;48.392;-4.472;2023-07-20T10:55:49;2.75;2.75;2.00
76238;PMS7003;65043;48.392;-4.472;2023-07-20T11:17:36;4.00;4.00;3.00
76238;PMS7003;65043;48.392;-4.472;2023-07-20T11:24:18;2.00;2.00;2.00
76238;PMS7003;65043;48.392;-4.472;2023-07-20T11:36:18;5.50;5.50;3.00
76238;PMS7003;65043;48.392;-4.472;2023-07-20T11:39:02;5.75;3.50;2.00
76238;PMS7003;65043;48.392;-4.472;2023-07-20T11:42:27;1.50;1.00;1.00
76238;PMS7003;65043;48.392;-4.472;2023-07-20T11:49:14;2.75;2.50;2.00
76238;PMS7003;65043;48.392;-4.472;2023-07-20T11:53:02;2.00;2.00;2.00
76238;PMS7003;65043;48.392;-4.472;2023-07-20T11:58:50;2.00;2.00;2.00
76238;PMS7003;65043;48.392;-4.472;2023-07-20T12:24:25;2.00;2.00;1.00
76238;PMS7003;65043;48.392;-4.472;2023-07-20T12:40:16;3.25;1.50;1.00
76238;PMS7003;65043;48.392;-4.472;2023-07-20T12:46:54;1.75;1.75;1.00
76238;PMS7003;65043;48.392;-4.472;2023-07-20T12:58:00;3.00;2.00;2.00
76238;PMS7003;65043;48.392;-4.472;2023-07-20T13:03:59;1.50;1.50;1.50
76238;PMS7003;65043;48.392;-4.472;2023-07-20T13:06:30;3.75;3.00;1.75
76238;PMS7003;65043;48.392;-4.472;2023-07-20T13:37:05;3.00;3.00;2.00
76238;PMS7003;65043;48.392;-4.472;2023-07-20T13:40:15;2.00;2.00;1.50
76238;PMS7003;65043;48.392;-4.472;2023-07-20T13:42:57;2.50;2.00;1.00
76238;PMS7003;65043;48.392;-4.472;2023-07-20T13:56:01;2.75;2.75;2.75
76238;PMS7003;65043;48.392;-4.472;2023-07-20T13:59:51;3.00;3.00;1.75
76238;PMS7003;65043;48.392;-4.472;2023-07-20T14:06:15;2.00;1.25;1.00
76238;PMS7003;65043;48.392;-4.472;2023-07-20T14:11:57;2.75;2.50;1.50
76238;PMS7003;65043;48.392;-4.472;2023-07-20T14:14:47;2.25;2.25;1.50
76238;PMS7003;65043;48.392;-4.472;2023-07-20T14:17:50;1.25;1.25;1.00
76238;PMS7003;65043;48.392;-4.472;2023-07-20T14:21:04;3.00;1.50;1.00
76238;PMS7003;65043;48.392;-4.472;2023-07-20T14:26:39;2.75;2.00;1.00
76238;PMS7003;65043;48.392;-4.472;2023-07-20T14:32:52;1.25;1.25;1.00
76238;PMS7003;65043;48.392;-4.472;2023-07-20T14:36:03;3.00;3.00;2.00
76238;PMS7003;65043;48.392;-4.472;2023-07-20T14:39:20;2.25;2.25;2.00
76238;PMS7003;65043;48.392;-4.472;2023-07-20T14:42:27;2.25;2.25;2.00
76238;PMS7003;65043;48.392;-4.472;2023-07-20T14:45:27;2.00;1.00;1.00
76238;PMS7003;65043;48.392;-4.472;2023-07-20T14:48:19;2.25;1.25;1.00
76238;PMS7003;65043;48.392;-4.472;2023-07-20T14:51:39;2.00;2.00;1.00
76238;PMS7003;65043;48.392;-4.472;2023-07-20T14:58:19;1.00;1.00;1.00
76238;PMS7003;65043;48.392;-4.472;2023-07-20T15:01:17;1.00;1.00;1.00
76238;PMS7003;65043;48.392;-4.472;2023-07-20T15:07:07;2.25;1.50;1.00
76238;PMS7003;65043;48.392;-4.472;2023-07-20T15:14:02;3.00;1.25;1.00
76238;PMS7003;65043;48.392;-4.472;2023-07-20T15:21:01;2.00;2.00;2.00
76238;PMS7003;65043;48.392;-4.472;2023-07-20T15:24:33;4.00;1.00;1.00
76238;PMS7003;65043;48.392;-4.472;2023-07-20T15:30:58;1.75;1.75;1.00
76238;PMS7003;65043;48.392;-4.472;2023-07-20T15:33:29;2.00;2.00;1.00
76238;PMS7003;65043;48.392;-4.472;2023-07-20T15:58:28;2.25;2.00;2.00
76238;PMS7003;65043;48.392;-4.472;2023-07-20T16:01:11;3.00;3.00;2.00
76238;PMS7003;65043;48.392;-4.472;2023-07-20T16:04:10;1.75;1.75;0.50
76238;PMS7003;65043;48.392;-4.472;2023-07-20T16:07:21;1.00;1.00;1.00
76238;PMS7003;65043;48.392;-4.472;2023-07-20T16:10:52;0.00;0.00;0.00
76238;PMS7003;65043;48.392;-4.472;2023-07-20T16:28:31;2.00;2.00;1.00
76238;PMS7003;65043;48.392;-4.472;2023-07-20T16:31:00;2.00;2.00;1.00
76238;PMS7003;65043;48.392;-4.472;2023-07-20T16:33:55;0.75;0.75;0.50
76238;PMS7003;65043;48.392;-4.472;2023-07-20T16:36:25;1.25;0.50;0.00
76238;PMS7003;65043;48.392;-4.472;2023-07-20T16:52:10;0.75;0.25;0.00
76238;PMS7003;65043;48.392;-4.472;2023-07-20T17:03:16;1.00;0.00;0.00
76238;PMS7003;65043;48.392;-4.472;2023-07-20T17:05:48;3.25;3.25;2.00
76238;PMS7003;65043;48.392;-4.472;2023-07-20T17:08:20;0.75;0.75;0.75
76238;PMS7003;65043;48.392;-4.472;2023-07-20T17:42:53;1.00;1.00;1.00
76238;PMS7003;65043;48.392;-4.472;2023-07-20T17:46:06;3.25;1.75;1.00
76238;PMS7003;65043;48.392;-4.472;2023-07-20T18:08:17;51.25;40.75;25.50
76238;PMS7003;65043;48.392;-4.472;2023-07-20T18:11:13;24.50;19.75;12.50
76238;PMS7003;65043;48.392;-4.472;2023-07-20T18:13:39;43.25;35.00;23.75
76238;PMS7003;65043;48.392;-4.472;2023-07-20T18:16:12;54.00;40.00;25.75
76238;PMS7003;65043;48.392;-4.472;2023-07-20T18:18:57;33.00;25.00;16.75
76238;PMS7003;65043;48.392;-4.472;2023-07-20T18:21:23;6.75;6.75;4.25
76238;PMS7003;65043;48.392;-4.472;2023-07-20T18:23:48;3.75;3.75;3.00
76238;PMS7003;65043;48.392;-4.472;2023-07-20T18:26:16;2.50;2.50;2.00
76238;PMS7003;65043;48.392;-4.472;2023-07-20T18:28:41;2.00;2.00;1.50
76238;PMS7003;65043;48.392;-4.472;2023-07-20T18:31:07;2.00;2.00;1.75
76238;PMS7003;65043;48.392;-4.472;2023-07-20T18:33:33;2.00;2.00;1.75
76238;PMS7003;65043;48.392;-4.472;2023-07-20T18:35:59;2.00;2.00;1.25
76238;PMS7003;65043;48.392;-4.472;2023-07-20T18:38:24;2.75;2.00;1.75
76238;PMS7003;65043;48.392;-4.472;2023-07-20T18:40:50;2.00;2.00;2.00
76238;PMS7003;65043;48.392;-4.472;2023-07-20T18:43:15;2.00;2.00;1.00
76238;PMS7003;65043;48.392;-4.472;2023-07-20T18:45:41;8.00;5.25;2.75
76238;PMS7003;65043;48.392;-4.472;2023-07-20T18:48:08;2.00;2.00;2.00
76238;PMS7003;65043;48.392;-4.472;2023-07-20T18:50:34;3.75;2.00;2.00
76238;PMS7003;65043;48.392;-4.472;2023-07-20T18:52:59;3.00;3.00;2.75
76238;PMS7003;65043;48.392;-4.472;2023-07-20T18:55:25;3.50;3.00;2.00
76238;PMS7003;65043;48.392;-4.472;2023-07-20T18:57:52;3.00;3.00;2.00
76238;PMS7003;65043;48.392;-4.472;2023-07-20T19:00:18;4.00;3.00;2.00
76238;PMS7003;65043;48.392;-4.472;2023-07-20T19:02:44;2.50;2.50;1.00
76238;PMS7003;65043;48.392;-4.472;2023-07-20T19:05:11;3.00;3.00;2.00
76238;PMS7003;65043;48.392;-4.472;2023-07-20T19:07:36;3.00;3.00;2.00
76238;PMS7003;65043;48.392;-4.472;2023-07-20T19:10:02;4.00;2.75;1.25
76238;PMS7003;65043;48.392;-4.472;2023-07-20T19:12:29;3.75;3.00;2.00
76238;PMS7003;65043;48.392;-4.472;2023-07-20T19:14:54;3.00;3.00;2.50
76238;PMS7003;65043;48.392;-4.472;2023-07-20T19:17:20;4.50;4.25;2.00
76238;PMS7003;65043;48.392;-4.472;2023-07-20T19:19:49;5.50;3.00;2.00
76238;PMS7003;65043;48.392;-4.472;2023-07-20T19:22:14;5.25;5.25;3.50
76238;PMS7003;65043;48.392;-4.472;2023-07-20T19:24:40;3.25;3.25;2.00
76238;PMS7003;65043;48.392;-4.472;2023-07-20T19:27:06;4.25;3.75;2.75
76238;PMS7003;65043;48.392;-4.472;2023-07-20T19:29:31;8.25;7.25;3.25
76238;PMS7003;65043;48.392;-4.472;2023-07-20T19:31:57;3.00;3.00;2.00
76238;PMS7003;65043;48.392;-4.472;2023-07-20T19:34:23;6.50;4.75;2.25
76238;PMS7003;65043;48.392;-4.472;2023-07-20T19:36:49;6.00;3.75;2.00
76238;PMS7003;65043;48.392;-4.472;2023-07-20T19:39:14;4.00;4.00;2.75
76238;PMS7003;65043;48.392;-4.472;2023-07-20T19:41:40;5.25;4.00;2.25
76238;PMS7003;65043;48.392;-4.472;2023-07-20T19:44:06;7.25;4.25;3.00
76238;PMS7003;65043;48.392;-4.472;2023-07-20T19:46:34;5.25;4.50;3.00
76238;PMS7003;65043;48.392;-4.472;2023-07-20T19:49:00;6.00;5.00;3.00
76238;PMS7003;65043;48.392;-4.472;2023-07-20T19:51:25;4.00;4.00;2.50
76238;PMS7003;65043;48.392;-4.472;2023-07-20T19:53:52;6.00;6.00;3.00
76238;PMS7003;65043;48.392;-4.472;2023-07-20T20:02:17;42.50;35.75;22.50
76238;PMS7003;65043;48.392;-4.472;2023-07-20T20:05:06;45.00;36.25;23.50
76238;PMS7003;65043;48.392;-4.472;2023-07-20T20:07:35;16.50;16.50;11.00
76238;PMS7003;65043;48.392;-4.472;2023-07-20T20:10:02;8.25;7.75;5.00
76238;PMS7003;65043;48.392;-4.472;2023-07-20T20:12:29;9.50;6.25;4.00
76238;PMS7003;65043;48.392;-4.472;2023-07-20T20:14:55;4.00;4.00;3.00
76238;PMS7003;65043;48.392;-4.472;2023-07-20T20:17:20;6.00;5.50;4.00
76238;PMS7003;65043;48.392;-4.472;2023-07-20T20:19:46;4.75;4.25;2.75
76238;PMS7003;65043;48.392;-4.472;2023-07-20T20:22:14;6.75;4.00;2.00
76238;PMS7003;65043;48.392;-4.472;2023-07-20T20:24:40;4.50;3.50;2.75
76238;PMS7003;65043;48.392;-4.472;2023-07-20T20:27:06;7.25;5.00;3.00
76238;PMS7003;65043;48.392;-4.472;2023-07-20T20:29:31;6.25;4.50;3.00
76238;PMS7003;65043;48.392;-4.472;2023-07-20T20:31:57;9.25;8.50;3.25
76238;PMS7003;65043;48.392;-4.472;2023-07-20T20:34:23;4.00;4.00;1.75
76238;PMS7003;65043;48.392;-4.472;2023-07-20T20:36:48;6.25;6.00;2.75
76238;PMS7003;65043;48.392;-4.472;2023-07-20T20:39:14;6.50;6.50;3.00
76238;PMS7003;65043;48.392;-4.472;2023-07-20T20:41:39;6.75;6.75;4.25
76238;PMS7003;65043;48.392;-4.472;2023-07-20T20:44:11;10.00;6.50;4.50
76238;PMS7003;65043;48.392;-4.472;2023-07-20T20:46:43;8.00;7.00;3.75
76238;PMS7003;65043;48.392;-4.472;2023-07-20T20:49:09;9.25;7.75;5.50
76238;PMS7003;65043;48.392;-4.472;2023-07-20T20:51:35;6.50;6.50;3.75
76238;PMS7003;65043;48.392;-4.472;2023-07-20T20:54:00;9.25;6.00;5.25
76238;PMS7003;65043;48.392;-4.472;2023-07-20T20:56:26;8.00;4.25;3.75
76238;PMS7003;65043;48.392;-4.472;2023-07-20T20:58:52;6.25;6.25;5.25
76238;PMS7003;65043;48.392;-4.472;2023-07-20T21:01:20;5.75;5.50;3.75
76238;PMS7003;65043;48.392;-4.472;2023-07-20T21:03:46;8.50;8.50;6.50
76238;PMS7003;65043;48.392;-4.472;2023-07-20T21:06:13;8.00;6.00;3.50
76238;PMS7003;65043;48.392;-4.472;2023-07-20T21:08:38;10.00;7.75;5.25
76238;PMS7003;65043;48.392;-4.472;2023-07-20T21:11:04;7.25;6.25;3.25
76238;PMS7003;65043;48.392;-4.472;2023-07-20T21:13:29;6.25;6.25;4.00
76238;PMS7003;65043;48.392;-4.472;2023-07-20T21:15:54;10.50;8.00;5.50
76238;PMS7003;65043;48.392;-4.472;2023-07-20T21:18:20;9.75;6.25;3.00
76238;PMS7003;65043;48.392;-4.472;2023-07-20T21:20:47;9.50;6.75;4.50
76238;PMS7003;65043;48.392;-4.472;2023-07-20T21:23:12;8.50;7.00;4.00
76238;PMS7003;65043;48.392;-4.472;2023-07-20T21:25:38;7.75;6.00;4.25
76238;PMS7003;65043;48.392;-4.472;2023-07-20T21:28:03;10.00;8.50;5.00
76238;PMS7003;65043;48.392;-4.472;2023-07-20T21:30:29;6.25;6.25;2.75
76238;PMS7003;65043;48.392;-4.472;2023-07-20T21:32:55;7.75;7.50;5.50
76238;PMS7003;65043;48.392;-4.472;2023-07-20T21:35:21;9.25;7.75;5.50
76238;PMS7003;65043;48.392;-4.472;2023-07-20T21:37:47;13.00;7.75;6.25
76238;PMS7003;65043;48.392;-4.472;2023-07-20T21:40:12;7.50;7.00;4.00
76238;PMS7003;65043;48.392;-4.472;2023-07-20T21:42:39;10.25;6.50;4.25
76238;PMS7003;65043;48.392;-4.472;2023-07-20T21:45:04;8.00;8.00;6.00
76238;PMS7003;65043;48.392;-4.472;2023-07-20T21:47:30;8.25;7.75;4.50
76238;PMS7003;65043;48.392;-4.472;2023-07-20T21:49:56;12.25;7.75;4.50
76238;PMS7003;65043;48.392;-4.472;2023-07-20T21:52:23;9.50;8.00;4.50
76238;PMS7003;65043;48.392;-4.472;2023-07-20T21:54:48;8.00;8.00;5.75
76238;PMS7003;65043;48.392;-4.472;2023-07-20T21:57:14;11.50;8.75;6.00
76238;PMS7003;65043;48.392;-4.472;2023-07-20T21:59:39;12.75;7.50;6.25
76238;PMS7003;65043;48.392;-4.472;2023-07-20T22:02:05;11.00;9.25;6.25
76238;PMS7003;65043;48.392;-4.472;2023-07-20T22:04:31;9.50;9.50;6.50
76238;PMS7003;65043;48.392;-4.472;2023-07-20T22:07:00;12.00;10.00;5.75
76238;PMS7003;65043;48.392;-4.472;2023-07-20T22:09:26;9.50;7.50;6.25
76238;PMS7003;65043;48.392;-4.472;2023-07-20T22:11:53;8.25;8.25;5.50
76238;PMS7003;65043;48.392;-4.472;2023-07-20T22:14:19;9.25;7.00;4.75
76238;PMS7003;65043;48.392;-4.472;2023-07-20T22:16:45;9.25;9.25;4.25
76238;PMS7003;65043;48.392;-4.472;2023-07-20T22:19:11;12.50;8.00;6.25
76238;PMS7003;65043;48.392;-4.472;2023-07-20T22:21:37;13.00;10.50;7.00
76238;PMS7003;65043;48.392;-4.472;2023-07-20T22:24:04;12.50;10.00;5.50
76238;PMS7003;65043;48.392;-4.472;2023-07-20T22:26:31;11.00;8.75;6.25
76238;PMS7003;65043;48.392;-4.472;2023-07-20T22:28:56;11.25;9.25;6.50
76238;PMS7003;65043;48.392;-4.472;2023-07-20T22:31:22;15.25;11.75;7.00
76238;PMS7003;65043;48.392;-4.472;2023-07-20T22:33:47;12.50;10.25;6.75
76238;PMS7003;65043;48.392;-4.472;2023-07-20T22:36:13;14.25;10.25;7.00
76238;PMS7003;65043;48.392;-4.472;2023-07-20T22:38:38;9.00;9.00;7.25
76238;PMS7003;65043;48.392;-4.472;2023-07-20T22:41:04;13.75;10.75;5.50
76238;PMS7003;65043;48.392;-4.472;2023-07-20T22:43:30;14.25;12.00;7.00
76238;PMS7003;65043;48.392;-4.472;2023-07-20T22:45:55;10.25;8.75;6.00
76238;PMS7003;65043;48.392;-4.472;2023-07-20T22:48:20;14.50;12.75;8.00
76238;PMS7003;65043;48.392;-4.472;2023-07-20T22:50:52;13.25;10.25;6.25
76238;PMS7003;65043;48.392;-4.472;2023-07-20T22:53:18;11.00;11.00;7.00
76238;PMS7003;65043;48.392;-4.472;2023-07-20T22:55:44;16.25;13.50;6.25
76238;PMS7003;65043;48.392;-4.472;2023-07-20T22:58:11;16.75;13.00;9.00
76238;PMS7003;65043;48.392;-4.472;2023-07-20T23:00:37;12.75;12.75;6.50
76238;PMS7003;65043;48.392;-4.472;2023-07-20T23:03:02;10.75;10.00;7.25
76238;PMS7003;65043;48.392;-4.472;2023-07-20T23:05:28;12.25;11.00;7.00
76238;PMS7003;65043;48.392;-4.472;2023-07-20T23:07:54;13.00;10.50;6.50
76238;PMS7003;65043;48.392;-4.472;2023-07-20T23:10:19;15.00;11.00;6.75
76238;PMS7003;65043;48.392;-4.472;2023-07-20T23:12:45;13.50;10.50;7.50
76238;PMS7003;65043;48.392;-4.472;2023-07-20T23:15:11;13.75;10.25;7.00
76238;PMS7003;65043;48.392;-4.472;2023-07-20T23:17:38;12.00;10.50;6.75
76238;PMS7003;65043;48.392;-4.472;2023-07-20T23:20:05;9.00;9.00;5.00
76238;PMS7003;65043;48.392;-4.472;2023-07-20T23:22:42;14.25;12.25;7.75
76238;PMS7003;65043;48.392;-4.472;2023-07-20T23:25:08;11.25;10.25;6.50
76238;PMS7003;65043;48.392;-4.472;2023-07-20T23:27:35;9.75;8.75;6.50
76238;PMS7003;65043;48.392;-4.472;2023-07-20T23:30:01;17.50;12.00;8.00
76238;PMS7003;65043;48.392;-4.472;2023-07-20T23:32:27;13.25;10.25;7.00
76238;PMS7003;65043;48.392;-4.472;2023-07-20T23:34:53;9.50;9.50;6.25
76238;PMS7003;65043;48.392;-4.472;2023-07-20T23:37:18;13.50;11.00;7.50
76238;PMS7003;65043;48.392;-4.472;2023-07-20T23:39:44;7.50;7.50;6.00
76238;PMS7003;65043;48.392;-4.472;2023-07-20T23:42:09;18.75;11.50;6.00
76238;PMS7003;65043;48.392;-4.472;2023-07-20T23:44:35;9.75;6.25;3.50
76238;PMS7003;65043;48.392;-4.472;2023-07-20T23:47:01;11.00;10.00;6.75
76238;PMS7003;65043;48.392;-4.472;2023-07-20T23:49:26;11.75;8.50;7.25
76238;PMS7003;65043;48.392;-4.472;2023-07-20T23:51:52;12.25;9.50;6.00
76238;PMS7003;65043;48.392;-4.472;2023-07-20T23:54:18;12.00;12.00;8.00
76238;PMS7003;65043;48.392;-4.472;2023-07-20T23:56:43;11.25;10.50;7.25
76238;PMS7003;65043;48.392;-4.472;2023-07-20T23:59:10;14.25;14.00;8.75
